createdAt,value
2019-05-28T00:00:39.221Z,62.40
2019-05-28T00:03:07.662Z,62.70
2019-05-28T00:05:36.195Z,62.40
2019-05-28T00:08:04.962Z,62.20
2019-05-28T00:10:33.425Z,62.00
2019-05-28T00:13:01.860Z,62.00
2019-05-28T00:15:30.322Z,61.90
2019-05-28T00:17:59.115Z,62.00
2019-05-28T00:20:27.667Z,61.80
2019-05-28T00:22:56.093Z,61.80
2019-05-28T00:25:28.461Z,62.00
2019-05-28T00:27:55.075Z,62.10
2019-05-28T00:30:23.611Z,62.00
2019-05-28T00:32:52.076Z,62.00
2019-05-28T00:35:22.062Z,62.20
2019-05-28T00:37:50.500Z,63.30
2019-05-28T00:40:19.125Z,62.80
2019-05-28T00:42:47.563Z,62.80
2019-05-28T00:45:16.658Z,63.50
2019-05-28T00:47:45.182Z,63.70
2019-05-28T00:50:15.499Z,64.00
2019-05-28T00:52:44.029Z,63.90
2019-05-28T00:55:12.974Z,64.20
2019-05-28T00:57:44.344Z,64.40
2019-05-28T01:00:13.521Z,64.60
2019-05-28T01:02:42.083Z,64.70
2019-05-28T01:05:10.843Z,65.20
2019-05-28T01:07:39.354Z,65.10
2019-05-28T01:10:09.449Z,65.40
2019-05-28T01:12:37.965Z,66.00
2019-05-28T01:15:13.339Z,65.40
2019-05-28T01:17:41.809Z,65.60
2019-05-28T01:20:11.770Z,65.70
2019-05-28T01:22:40.228Z,65.90
2019-05-28T01:25:08.927Z,65.90
2019-05-28T01:27:37.400Z,65.80
2019-05-28T01:30:06.893Z,65.60
2019-05-28T01:32:35.355Z,65.50
2019-05-28T01:35:06.201Z,65.50
2019-05-28T01:37:34.875Z,65.20
2019-05-28T01:40:07.284Z,64.90
2019-05-28T01:42:35.748Z,64.90
2019-05-28T01:45:08.016Z,64.50
2019-05-28T01:47:36.721Z,64.80
2019-05-28T01:50:07.888Z,64.20
2019-05-28T01:52:36.886Z,64.80
2019-05-28T01:55:06.647Z,64.90
2019-05-28T01:57:35.169Z,64.70
2019-05-28T02:00:06.019Z,65.00
2019-05-28T02:02:34.478Z,64.90
2019-05-28T02:05:03.282Z,65.10
2019-05-28T02:07:32.448Z,64.90
2019-05-28T02:10:00.892Z,65.20
2019-05-28T02:12:29.435Z,65.20
2019-05-28T02:14:57.871Z,65.20
2019-05-28T02:17:26.345Z,65.10
2019-05-28T02:19:54.777Z,64.90
2019-05-28T02:22:23.250Z,64.60
2019-05-28T02:24:51.825Z,64.60
2019-05-28T02:27:20.483Z,64.70
2019-05-28T02:29:48.998Z,64.70
2019-05-28T02:32:17.477Z,64.80
2019-05-28T02:34:45.987Z,64.80
2019-05-28T02:37:14.761Z,64.70
2019-05-28T02:39:43.227Z,65.10
2019-05-28T02:42:11.661Z,64.90
2019-05-28T02:44:40.118Z,65.00
2019-05-28T02:47:08.557Z,65.20
2019-05-28T02:49:37.368Z,65.30
2019-05-28T02:52:05.974Z,65.20
2019-05-28T02:54:34.871Z,65.40
2019-05-28T02:57:04.243Z,65.30
2019-05-28T02:59:34.614Z,65.10
2019-05-28T03:02:04.720Z,65.00
2019-05-28T03:04:35.759Z,65.30
2019-05-28T03:07:06.720Z,65.40
2019-05-28T03:09:38.346Z,65.30
2019-05-28T03:12:06.803Z,65.20
2019-05-28T03:14:35.269Z,65.20
2019-05-28T03:17:04.942Z,65.10
2019-05-28T03:19:35.462Z,65.10
2019-05-28T03:22:05.601Z,65.00
2019-05-28T03:24:35.212Z,64.90
2019-05-28T03:27:03.871Z,65.20
2019-05-28T03:29:32.480Z,65.50
2019-05-28T03:32:07.561Z,65.30
2019-05-28T03:34:31.183Z,65.20
2019-05-28T03:37:00.451Z,65.20
2019-05-28T03:39:30.229Z,65.30
2019-05-28T03:41:58.722Z,65.40
2019-05-28T03:44:27.195Z,65.40
2019-05-28T03:46:55.631Z,65.60
2019-05-28T03:49:24.162Z,65.50
2019-05-28T03:51:52.590Z,65.20
2019-05-28T03:54:21.351Z,64.90
2019-05-28T03:56:49.872Z,64.80
2019-05-28T03:59:18.319Z,64.80
2019-05-28T04:01:46.772Z,65.00
2019-05-28T04:04:15.233Z,65.20
2019-05-28T04:06:43.679Z,65.20
2019-05-28T04:09:12.142Z,65.20
2019-05-28T04:11:44.701Z,65.50
2019-05-28T04:14:10.780Z,65.30
2019-05-28T04:16:39.220Z,65.00
2019-05-28T04:19:07.655Z,64.70
2019-05-28T04:21:36.187Z,64.80
2019-05-28T04:24:04.954Z,64.80
2019-05-28T04:26:33.591Z,64.70
2019-05-28T04:29:02.118Z,64.50
2019-05-28T04:31:30.711Z,64.60
2019-05-28T04:33:59.134Z,64.60
2019-05-28T04:36:27.604Z,64.70
2019-05-28T04:38:56.043Z,64.60
2019-05-28T04:41:24.525Z,64.40
2019-05-28T04:43:52.970Z,63.70
2019-05-28T04:46:21.452Z,65.00
2019-05-28T04:48:49.904Z,64.40
2019-05-28T04:51:18.531Z,64.30
2019-05-28T04:53:46.996Z,64.40
2019-05-28T04:56:15.457Z,64.50
2019-05-28T04:58:43.974Z,64.30
2019-05-28T05:01:12.444Z,64.30
2019-05-28T05:03:40.960Z,64.40
2019-05-28T05:06:09.539Z,64.70
2019-05-28T05:08:37.998Z,64.50
2019-05-28T05:11:06.535Z,64.40
2019-05-28T05:13:34.985Z,64.60
2019-05-28T05:16:03.522Z,64.60
2019-05-28T05:18:31.952Z,64.50
2019-05-28T05:21:00.428Z,64.30
2019-05-28T05:23:28.902Z,64.10
2019-05-28T05:25:57.363Z,64.30
2019-05-28T05:28:25.895Z,64.30
2019-05-28T05:30:54.375Z,64.10
2019-05-28T05:33:22.875Z,64.10
2019-05-28T05:35:51.326Z,64.10
2019-05-28T05:38:19.794Z,64.00
2019-05-28T05:40:48.250Z,64.20
2019-05-28T05:43:17.000Z,64.30
2019-05-28T05:45:45.717Z,64.00
2019-05-28T05:48:14.247Z,63.90
2019-05-28T05:50:45.234Z,63.10
2019-05-28T05:53:12.885Z,63.70
2019-05-28T05:55:41.343Z,63.60
2019-05-28T05:58:09.822Z,63.20
2019-05-28T06:00:38.288Z,62.70
2019-05-28T06:03:06.746Z,62.80
2019-05-28T06:05:35.201Z,62.90
2019-05-28T06:08:03.762Z,63.20
2019-05-28T06:10:32.582Z,63.00
2019-05-28T06:13:01.037Z,63.00
2019-05-28T06:15:29.770Z,62.90
2019-05-28T06:17:58.399Z,63.00
2019-05-28T06:20:26.825Z,62.80
2019-05-28T06:22:55.295Z,62.50
2019-05-28T06:25:23.741Z,62.70
2019-05-28T06:27:52.191Z,62.80
2019-05-28T06:30:20.982Z,62.70
2019-05-28T06:32:49.430Z,63.00
2019-05-28T06:35:18.035Z,62.60
2019-05-28T06:37:46.561Z,62.60
2019-05-28T06:40:15.543Z,63.20
2019-05-28T06:42:44.295Z,63.90
2019-05-28T06:45:15.613Z,64.40
2019-05-28T06:47:45.646Z,64.10
2019-05-28T06:50:15.804Z,65.00
2019-05-28T06:52:44.282Z,65.10
2019-05-28T06:55:12.805Z,65.20
2019-05-28T06:57:41.246Z,65.50
2019-05-28T07:00:10.848Z,64.70
2019-05-28T07:02:39.297Z,65.10
2019-05-28T07:05:08.198Z,65.80
2019-05-28T07:07:36.649Z,65.50
2019-05-28T07:10:06.964Z,65.50
2019-05-28T07:12:35.540Z,65.30
2019-05-28T07:15:06.337Z,65.40
2019-05-28T07:17:34.998Z,64.80
2019-05-28T07:20:05.708Z,64.80
2019-05-28T07:22:34.221Z,64.70
2019-05-28T07:25:02.819Z,65.90
2019-05-28T07:27:31.282Z,66.20
2019-05-28T07:29:59.740Z,66.30
2019-05-28T07:32:28.210Z,66.00
2019-05-28T07:34:56.730Z,65.50
2019-05-28T07:37:25.282Z,65.60
2019-05-28T07:39:53.769Z,65.10
2019-05-28T07:42:32.211Z,65.40
2019-05-28T07:44:52.402Z,65.30
2019-05-28T07:47:20.839Z,64.90
2019-05-28T07:49:49.299Z,65.10
2019-05-28T07:52:17.745Z,64.60
2019-05-28T07:54:46.271Z,64.50
2019-05-28T07:57:14.711Z,64.10
2019-05-28T07:59:43.175Z,64.00
2019-05-28T08:02:11.627Z,65.10
2019-05-28T08:04:47.143Z,65.50
2019-05-28T08:07:10.313Z,64.50
2019-05-28T08:09:38.780Z,63.90
2019-05-28T08:12:07.202Z,61.70
2019-05-28T08:14:35.714Z,61.70
2019-05-28T08:17:04.255Z,60.30
2019-05-28T08:19:32.791Z,60.60
2019-05-28T08:22:01.363Z,60.60
2019-05-28T08:24:29.895Z,59.90
2019-05-28T08:26:58.321Z,60.80
2019-05-28T08:29:26.779Z,61.60
2019-05-28T08:31:55.229Z,62.80
2019-05-28T08:34:24.055Z,61.70
2019-05-28T08:37:05.169Z,62.10
2019-05-28T08:39:22.687Z,62.10
2019-05-28T08:41:51.110Z,62.30
2019-05-28T08:44:19.583Z,62.70
2019-05-28T08:46:48.030Z,60.50
2019-05-28T08:49:16.479Z,58.90
2019-05-28T08:51:44.923Z,59.40
2019-05-28T08:54:13.386Z,59.50
2019-05-28T08:56:41.941Z,59.90
2019-05-28T08:59:10.382Z,58.90
2019-05-28T09:01:38.824Z,58.60
2019-05-28T09:04:07.374Z,58.60
2019-05-28T09:06:35.825Z,57.20
2019-05-28T09:09:06.571Z,56.80
2019-05-28T09:11:35.028Z,56.30
2019-05-28T09:14:03.603Z,55.90
2019-05-28T09:16:32.045Z,55.70
2019-05-28T09:19:00.495Z,54.60
2019-05-28T09:21:28.938Z,54.70
2019-05-28T09:23:57.412Z,54.10
2019-05-28T09:26:25.929Z,54.70
2019-05-28T09:28:55.434Z,54.40
2019-05-28T09:31:24.345Z,55.20
2019-05-28T09:33:52.787Z,54.70
2019-05-28T09:36:21.259Z,54.70
2019-05-28T09:38:49.722Z,53.70
2019-05-28T09:41:18.304Z,53.90
2019-05-28T09:43:46.750Z,54.90
2019-05-28T09:46:15.353Z,55.40
2019-05-28T09:48:43.787Z,54.80
2019-05-28T09:51:12.258Z,55.80
2019-05-28T09:53:40.710Z,55.00
2019-05-28T09:56:09.251Z,55.10
2019-05-28T09:58:37.692Z,53.40
2019-05-28T10:01:06.247Z,53.40
2019-05-28T10:03:34.683Z,50.40
2019-05-28T10:06:16.132Z,51.30
2019-05-28T10:08:33.378Z,50.30
2019-05-28T10:11:02.283Z,50.30
2019-05-28T10:13:39.012Z,49.30
2019-05-28T10:16:00.999Z,47.90
2019-05-28T10:18:29.511Z,47.50
2019-05-28T10:20:57.968Z,47.50
2019-05-28T10:23:26.408Z,48.30
2019-05-28T10:25:55.029Z,47.70
2019-05-28T10:28:23.549Z,46.90
2019-05-28T10:30:52.009Z,46.80
2019-05-28T10:33:20.572Z,47.10
2019-05-28T10:35:49.059Z,45.00
2019-05-28T10:38:17.530Z,44.70
2019-05-28T10:40:46.060Z,42.80
2019-05-28T10:43:14.487Z,42.30
2019-05-28T10:45:42.973Z,41.80
2019-05-28T10:48:11.495Z,42.10
2019-05-28T10:50:40.106Z,41.70
2019-05-28T10:53:08.557Z,42.90
2019-05-28T10:55:37.035Z,43.10
2019-05-28T10:58:05.639Z,43.30
2019-05-28T11:00:34.096Z,41.70
2019-05-28T11:03:02.560Z,40.80
2019-05-28T11:05:30.995Z,37.20
2019-05-28T11:07:59.538Z,37.30
2019-05-28T11:10:28.061Z,38.80
2019-05-28T11:12:56.523Z,38.30
2019-05-28T11:15:25.389Z,38.60
2019-05-28T11:17:53.852Z,38.00
2019-05-28T11:20:22.731Z,33.00
2019-05-28T11:22:51.265Z,32.80
2019-05-28T11:25:21.172Z,32.80
2019-05-28T11:27:49.631Z,33.10
2019-05-28T11:30:18.743Z,32.80
2019-05-28T11:32:47.270Z,30.60
2019-05-28T11:35:17.502Z,29.80
2019-05-28T11:37:46.134Z,31.80
2019-05-28T11:40:16.430Z,33.90
2019-05-28T11:42:44.966Z,36.10
2019-05-28T11:45:15.956Z,35.10
2019-05-28T11:47:45.091Z,36.50
2019-05-28T11:50:13.984Z,37.70
2019-05-28T11:52:42.461Z,38.30
2019-05-28T11:55:15.752Z,39.70
2019-05-28T11:57:44.271Z,40.60
2019-05-28T12:00:14.556Z,40.90
2019-05-28T12:02:43.013Z,41.10
2019-05-28T12:05:12.360Z,41.70
2019-05-28T12:07:40.884Z,42.80
2019-05-28T12:10:10.063Z,42.70
2019-05-28T12:12:41.401Z,39.40
2019-05-28T12:15:11.823Z,38.20
2019-05-28T12:17:43.285Z,36.10
2019-05-28T12:20:13.668Z,32.30
2019-05-28T12:22:42.906Z,33.70
2019-05-28T12:25:12.311Z,35.40
2019-05-28T12:27:40.817Z,36.40
2019-05-28T12:30:18.213Z,36.70
2019-05-28T12:32:45.050Z,36.00
2019-05-28T12:35:27.246Z,35.00
2019-05-28T12:37:49.161Z,32.60
2019-05-28T12:40:15.826Z,29.10
2019-05-28T12:42:44.268Z,29.90
2019-05-28T12:45:13.878Z,32.20
2019-05-28T12:47:42.327Z,33.30
2019-05-28T12:50:20.759Z,31.90
2019-05-28T12:52:41.408Z,32.80
2019-05-28T12:55:10.698Z,32.70
2019-05-28T12:57:39.136Z,34.20
2019-05-28T13:00:09.139Z,33.40
2019-05-28T13:02:37.587Z,32.40
2019-05-28T13:05:12.084Z,31.10
2019-05-28T13:07:40.503Z,31.40
2019-05-28T13:10:09.537Z,32.10
2019-05-28T13:12:38.027Z,32.10
2019-05-28T13:15:07.526Z,33.40
2019-05-28T13:17:35.984Z,33.30
2019-05-28T13:20:09.385Z,33.40
2019-05-28T13:22:38.027Z,33.40
2019-05-28T13:25:07.423Z,33.90
2019-05-28T13:27:35.884Z,35.10
2019-05-28T13:30:10.267Z,37.90
2019-05-28T13:32:39.094Z,40.30
2019-05-28T13:35:10.036Z,41.00
2019-05-28T13:37:38.628Z,38.90
2019-05-28T13:40:09.898Z,36.70
2019-05-28T13:42:38.609Z,32.20
2019-05-28T13:45:08.843Z,29.20
2019-05-28T13:47:37.448Z,29.30
2019-05-28T13:50:09.549Z,24.80
2019-05-28T13:52:37.977Z,23.10
2019-05-28T13:55:07.790Z,23.20
2019-05-28T13:57:39.131Z,25.10
2019-05-28T14:00:08.282Z,24.20
2019-05-28T14:02:37.066Z,24.50
2019-05-28T14:05:06.934Z,26.70
2019-05-28T14:07:35.434Z,28.50
2019-05-28T14:10:08.515Z,30.20
2019-05-28T14:12:37.112Z,32.30
2019-05-28T14:15:07.939Z,34.00
2019-05-28T14:17:36.444Z,35.20
2019-05-28T14:20:08.258Z,39.40
2019-05-28T14:22:37.753Z,39.50
2019-05-28T14:25:08.360Z,41.50
2019-05-28T14:27:36.831Z,42.10
2019-05-28T14:30:11.139Z,38.40
2019-05-28T14:32:39.602Z,35.30
2019-05-28T14:35:08.737Z,33.40
2019-05-28T14:37:37.192Z,32.60
2019-05-28T14:40:07.426Z,32.00
2019-05-28T14:42:36.028Z,31.80
2019-05-28T14:45:06.681Z,29.50
2019-05-28T14:47:35.153Z,27.70
2019-05-28T14:50:05.697Z,27.90
2019-05-28T14:52:34.145Z,27.10
2019-05-28T14:55:02.588Z,28.00
2019-05-28T14:57:31.378Z,28.20
2019-05-28T14:59:59.811Z,27.50
2019-05-28T15:02:28.267Z,28.60
2019-05-28T15:04:56.734Z,28.20
2019-05-28T15:07:25.250Z,28.90
2019-05-28T15:09:53.693Z,30.40
2019-05-28T15:12:22.175Z,31.40
2019-05-28T15:14:50.648Z,30.00
2019-05-28T15:17:19.255Z,30.60
2019-05-28T15:19:47.808Z,30.70
2019-05-28T15:22:16.358Z,32.10
2019-05-28T15:24:44.923Z,30.90
2019-05-28T15:27:13.545Z,31.40
2019-05-28T15:29:42.095Z,32.00
2019-05-28T15:32:10.633Z,32.40
2019-05-28T15:34:39.129Z,32.00
2019-05-28T15:37:07.647Z,32.30
2019-05-28T15:39:40.200Z,32.60
2019-05-28T15:42:06.574Z,31.10
2019-05-28T15:44:35.760Z,29.50
2019-05-28T15:47:04.219Z,29.20
2019-05-28T15:49:32.653Z,28.30
2019-05-28T15:52:07.683Z,28.10
2019-05-28T15:54:31.259Z,28.70
2019-05-28T15:56:59.731Z,27.80
2019-05-28T15:59:28.151Z,27.10
2019-05-28T16:01:56.611Z,26.10
2019-05-28T16:04:25.128Z,25.90
2019-05-28T16:06:53.587Z,25.50
2019-05-28T16:09:22.089Z,25.90
2019-05-28T16:11:50.605Z,25.20
2019-05-28T16:14:19.131Z,24.40
2019-05-28T16:16:47.556Z,24.40
2019-05-28T16:19:16.023Z,24.90
2019-05-28T16:21:44.529Z,26.10
2019-05-28T16:24:12.981Z,27.70
2019-05-28T16:26:41.499Z,29.00
2019-05-28T16:29:09.954Z,29.90
2019-05-28T16:31:38.391Z,30.40
2019-05-28T16:34:06.854Z,30.90
2019-05-28T16:36:35.367Z,31.50
2019-05-28T16:39:05.435Z,31.70
2019-05-28T16:41:33.863Z,31.80
2019-05-28T16:44:02.368Z,32.20
2019-05-28T16:46:30.850Z,32.20
2019-05-28T16:48:59.318Z,32.10
2019-05-28T16:51:27.744Z,31.70
2019-05-28T16:53:56.261Z,32.10
2019-05-28T16:56:24.717Z,32.40
2019-05-28T16:58:53.213Z,32.70
2019-05-28T17:01:23.010Z,32.20
2019-05-28T17:03:51.808Z,32.30
2019-05-28T17:06:20.290Z,32.90
2019-05-28T17:08:48.813Z,33.50
2019-05-28T17:11:17.468Z,33.80
2019-05-28T17:13:48.192Z,34.10
2019-05-28T17:16:16.274Z,34.60
2019-05-28T17:18:44.959Z,34.70
2019-05-28T17:21:13.393Z,34.80
2019-05-28T17:23:41.852Z,34.60
2019-05-28T17:26:10.371Z,34.90
2019-05-28T17:28:38.829Z,34.90
2019-05-28T17:31:07.259Z,34.50
2019-05-28T17:33:35.778Z,34.70
2019-05-28T17:36:04.775Z,34.80
2019-05-28T17:38:33.313Z,34.70
2019-05-28T17:41:01.772Z,34.80
2019-05-28T17:43:30.211Z,34.60
2019-05-28T17:45:58.675Z,34.90
2019-05-28T17:48:27.319Z,34.80
2019-05-28T17:50:55.774Z,34.80
2019-05-28T17:53:24.226Z,34.80
2019-05-28T17:55:52.679Z,35.20
2019-05-28T17:58:21.116Z,35.20
2019-05-28T18:00:49.612Z,35.00
2019-05-28T18:03:18.079Z,36.30
2019-05-28T18:05:46.823Z,37.30
2019-05-28T18:08:15.318Z,38.10
2019-05-28T18:10:44.267Z,38.70
2019-05-28T18:13:12.765Z,39.30
2019-05-28T18:15:41.312Z,39.70
2019-05-28T18:18:09.829Z,40.30
2019-05-28T18:20:38.310Z,40.70
2019-05-28T18:23:06.766Z,41.40
2019-05-28T18:25:35.241Z,42.10
2019-05-28T18:28:03.810Z,43.00
2019-05-28T18:30:32.263Z,43.00
2019-05-28T18:33:00.768Z,43.50
2019-05-28T18:35:29.238Z,43.90
2019-05-28T18:38:03.205Z,44.20
2019-05-28T18:40:27.854Z,44.20
2019-05-28T18:42:56.353Z,44.40
2019-05-28T18:45:24.822Z,44.70
2019-05-28T18:47:53.271Z,45.10
2019-05-28T18:50:21.975Z,46.00
2019-05-28T18:52:50.421Z,47.10
2019-05-28T18:55:19.111Z,47.80
2019-05-28T18:57:50.382Z,48.20
2019-05-28T19:00:18.125Z,49.10
2019-05-28T19:02:46.558Z,50.80
2019-05-28T19:05:16.529Z,52.00
2019-05-28T19:07:44.962Z,52.50
2019-05-28T19:10:13.957Z,52.70
2019-05-28T19:12:42.534Z,53.10
2019-05-28T19:15:12.446Z,52.80
2019-05-28T19:17:40.867Z,54.40
2019-05-28T19:20:10.048Z,54.50
2019-05-28T19:22:38.592Z,54.90
2019-05-28T19:25:10.723Z,54.50
2019-05-28T19:27:39.175Z,55.10
2019-05-28T19:30:10.138Z,55.20
2019-05-28T19:32:38.767Z,55.50
2019-05-28T19:35:08.132Z,55.80
2019-05-28T19:37:36.940Z,55.10
2019-05-28T19:40:06.798Z,55.10
2019-05-28T19:42:35.422Z,55.40
2019-05-28T19:45:08.227Z,55.30
2019-05-28T19:47:36.829Z,55.20
2019-05-28T19:50:07.041Z,55.40
2019-05-28T19:52:35.744Z,55.70
2019-05-28T19:55:05.889Z,55.50
2019-05-28T19:57:34.554Z,56.10
2019-05-28T20:00:03.056Z,56.50
2019-05-28T20:02:31.544Z,56.10
2019-05-28T20:05:00.059Z,55.80
2019-05-28T20:07:28.519Z,56.60
2019-05-28T20:09:56.990Z,56.40
2019-05-28T20:12:25.452Z,56.00
2019-05-28T20:14:53.911Z,55.50
2019-05-28T20:17:23.545Z,55.40
2019-05-28T20:19:52.977Z,55.00
2019-05-28T20:22:22.215Z,55.60
2019-05-28T20:24:52.841Z,55.50
2019-05-28T20:27:21.163Z,55.80
2019-05-28T20:29:49.614Z,55.60
2019-05-28T20:32:18.071Z,56.00
2019-05-28T20:34:46.527Z,55.90
2019-05-28T20:37:15.050Z,55.60
2019-05-28T20:39:43.641Z,55.20
2019-05-28T20:42:26.066Z,55.20
2019-05-28T20:44:42.398Z,54.80
2019-05-28T20:47:11.412Z,54.80
2019-05-28T20:49:39.903Z,54.80
2019-05-28T20:52:09.161Z,54.60
2019-05-28T20:54:37.779Z,54.30
2019-05-28T20:57:06.247Z,54.30
2019-05-28T20:59:34.670Z,54.40
2019-05-28T21:02:03.147Z,54.50
2019-05-28T21:04:31.652Z,54.40
2019-05-28T21:07:00.220Z,54.30
2019-05-28T21:09:28.694Z,54.30
2019-05-28T21:11:57.136Z,54.40
2019-05-28T21:14:25.599Z,55.20
2019-05-28T21:16:55.068Z,54.00
2019-05-28T21:19:23.753Z,53.20
2019-05-28T21:21:53.614Z,52.90
2019-05-28T21:24:22.270Z,52.80
2019-05-28T21:26:50.753Z,52.70
2019-05-28T21:29:19.210Z,52.70
2019-05-28T21:31:47.660Z,52.70
2019-05-28T21:34:16.130Z,52.60
2019-05-28T21:36:44.562Z,52.50
2019-05-28T21:39:13.039Z,52.30
2019-05-28T21:41:41.540Z,52.10
2019-05-28T21:44:10.007Z,51.90
2019-05-28T21:46:38.436Z,51.80
2019-05-28T21:49:06.898Z,51.90
2019-05-28T21:51:35.337Z,51.80
2019-05-28T21:54:03.931Z,51.90
2019-05-28T21:56:32.430Z,51.80
2019-05-28T21:59:01.657Z,51.70
2019-05-28T22:01:32.951Z,51.70
2019-05-28T22:04:01.684Z,51.70
2019-05-28T22:06:30.220Z,51.80
2019-05-28T22:08:59.795Z,51.80
2019-05-28T22:11:28.447Z,51.80
2019-05-28T22:13:58.018Z,51.70
2019-05-28T22:16:26.664Z,51.70
2019-05-28T22:18:56.190Z,51.70
2019-05-28T22:21:24.795Z,51.70
2019-05-28T22:23:53.324Z,51.80
2019-05-28T22:26:21.863Z,52.10
2019-05-28T22:28:50.323Z,51.40
2019-05-28T22:31:18.771Z,51.50
2019-05-28T22:33:47.226Z,51.20
2019-05-28T22:36:15.663Z,51.00
2019-05-28T22:38:46.141Z,51.00
2019-05-28T22:41:14.571Z,51.00
2019-05-28T22:43:43.020Z,50.60
2019-05-28T22:46:11.539Z,50.70
2019-05-28T22:48:40.368Z,50.90
2019-05-28T22:51:08.887Z,51.00
2019-05-28T22:53:40.192Z,51.10
2019-05-28T22:56:08.356Z,50.90
2019-05-28T22:58:36.974Z,50.90
2019-05-28T23:01:06.419Z,50.70
2019-05-28T23:03:35.254Z,51.00
2019-05-28T23:06:03.700Z,51.30
2019-05-28T23:08:32.147Z,51.20
2019-05-28T23:11:03.155Z,51.40
2019-05-28T23:13:44.128Z,51.30
2019-05-28T23:16:02.535Z,51.80
2019-05-28T23:18:31.327Z,52.40
2019-05-28T23:21:00.639Z,51.90
2019-05-28T23:23:29.542Z,51.20
2019-05-28T23:25:58.003Z,51.10
2019-05-28T23:28:26.554Z,51.40
2019-05-28T23:30:55.018Z,52.00
2019-05-28T23:33:23.514Z,52.80
2019-05-28T23:35:51.976Z,52.50
2019-05-28T23:38:20.734Z,53.00
2019-05-28T23:40:49.183Z,52.40
2019-05-28T23:43:17.605Z,52.50
2019-05-28T23:45:46.381Z,52.50
2019-05-28T23:48:18.283Z,52.10
2019-05-28T23:50:44.980Z,52.10
2019-05-28T23:53:13.857Z,51.90
2019-05-28T23:55:42.411Z,52.30
2019-05-28T23:58:11.940Z,52.10
